NOK196 VTBD-VTPM
Flight info
| Callsign | NOK196 |
|---|---|
| Flight time | 0h 41m |
| Altitude | 28000 |
| Route | OLVUK3C OLVUK Y26 NUVLU Y30 URGUM URGUM1W |
| Aircraft | B738/M-SDE2E3FGHIRWXY/LB1 |
Departure
| Time | 2026-05-06 05:23 |
|---|---|
| Airport | Don Mueang International Airport (VTBD) |
Arrival
| Time | 2026-05-06 06:05 |
|---|---|
| Airport | Mae Sot Airport (VTPM) |
| Time | Latitude | Longitude | Altitude | Speed | Heading |
|---|---|---|---|---|---|
| 2026-05-06 04:57 | 13.91789 | 100.60329 | 17 ft | 0 kts | 28° |
| 2026-05-06 05:14 | 13.91777 | 100.60323 | 17 ft | 4 kts | 27° |
| 2026-05-06 05:14 | 13.91752 | 100.60311 | 17 ft | 4 kts | 19° |
| 2026-05-06 05:14 | 13.91726 | 100.60305 | 17 ft | 4 kts | 354° |
| 2026-05-06 05:14 | 13.91707 | 100.60314 | 17 ft | 2 kts | 298° |
| 2026-05-06 05:15 | 13.91695 | 100.60338 | 17 ft | 4 kts | 298° |
| 2026-05-06 05:15 | 13.91682 | 100.60362 | 16 ft | 4 kts | 298° |
| 2026-05-06 05:15 | 13.91670 | 100.60385 | 16 ft | 4 kts | 303° |
| 2026-05-06 05:15 | 13.91652 | 100.60403 | 17 ft | 4 kts | 342° |
| 2026-05-06 05:16 | 13.91627 | 100.60404 | 16 ft | 4 kts | 20° |
| 2026-05-06 05:16 | 13.91603 | 100.60392 | 16 ft | 4 kts | 34° |
| 2026-05-06 05:16 | 13.91581 | 100.60376 | 17 ft | 4 kts | 32° |
| 2026-05-06 05:16 | 13.91577 | 100.60373 | 16 ft | 0 kts | 29° |
| 2026-05-06 05:18 | 13.91578 | 100.60374 | 16 ft | 3 kts | 30° |
| 2026-05-06 05:19 | 13.91652 | 100.60417 | 18 ft | 16 kts | 29° |
| 2026-05-06 05:19 | 13.91761 | 100.60475 | 17 ft | 20 kts | 27° |
| 2026-05-06 05:19 | 13.91894 | 100.60550 | 17 ft | 24 kts | 29° |
| 2026-05-06 05:19 | 13.92049 | 100.60635 | 17 ft | 27 kts | 28° |
| 2026-05-06 05:20 | 13.92224 | 100.60735 | 17 ft | 30 kts | 29° |
| 2026-05-06 05:20 | 13.92418 | 100.60842 | 17 ft | 33 kts | 27° |
| 2026-05-06 05:20 | 13.92605 | 100.60948 | 17 ft | 17 kts | 29° |
| 2026-05-06 05:20 | 13.92680 | 100.61020 | 17 ft | 14 kts | 85° |
| 2026-05-06 05:21 | 13.92634 | 100.61126 | 16 ft | 19 kts | 119° |
| 2026-05-06 05:21 | 13.92562 | 100.61259 | 15 ft | 23 kts | 119° |
| 2026-05-06 05:21 | 13.92480 | 100.61411 | 15 ft | 15 kts | 118° |
| 2026-05-06 05:21 | 13.92394 | 100.61500 | 14 ft | 21 kts | 169° |
| 2026-05-06 05:22 | 13.92343 | 100.61491 | 14 ft | 0 kts | 202° |
| 2026-05-06 05:22 | 13.92341 | 100.61490 | 14 ft | 5 kts | 201° |
| 2026-05-06 05:22 | 13.92219 | 100.61424 | 15 ft | 35 kts | 209° |
| 2026-05-06 05:23 | 13.91854 | 100.61216 | 17 ft | 88 kts | 208° |
| 2026-05-06 05:23 | 13.91157 | 100.60826 | 16 ft | 139 kts | 209° |
| 2026-05-06 05:23 | 13.89106 | 100.59716 | 701 ft | 170 kts | 206° |
| 2026-05-06 05:24 | 13.88000 | 100.59135 | 1191 ft | 185 kts | 209° |
| 2026-05-06 05:24 | 13.86828 | 100.58461 | 1684 ft | 201 kts | 212° |
| 2026-05-06 05:24 | 13.86002 | 100.57285 | 2139 ft | 211 kts | 257° |
| 2026-05-06 05:24 | 13.86161 | 100.55767 | 2598 ft | 225 kts | 297° |
| 2026-05-06 05:25 | 13.87056 | 100.54395 | 3216 ft | 239 kts | 306° |
| 2026-05-06 05:25 | 13.88067 | 100.52965 | 3791 ft | 256 kts | 306° |
| 2026-05-06 05:25 | 13.89028 | 100.51360 | 4365 ft | 272 kts | 297° |
| 2026-05-06 05:25 | 13.89834 | 100.49567 | 5125 ft | 279 kts | 292° |
| 2026-05-06 05:26 | 13.90575 | 100.47735 | 5923 ft | 283 kts | 292° |
| 2026-05-06 05:26 | 13.91358 | 100.45858 | 6726 ft | 287 kts | 294° |
| 2026-05-06 05:26 | 13.92194 | 100.43974 | 7539 ft | 291 kts | 295° |
| 2026-05-06 05:26 | 13.93063 | 100.42078 | 8315 ft | 295 kts | 295° |
| 2026-05-06 05:27 | 13.93945 | 100.40154 | 9073 ft | 299 kts | 295° |
| 2026-05-06 05:27 | 13.94833 | 100.38197 | 9823 ft | 303 kts | 294° |
| 2026-05-06 05:27 | 13.95733 | 100.36208 | 10388 ft | 314 kts | 296° |
| 2026-05-06 05:27 | 13.97049 | 100.34350 | 10744 ft | 331 kts | 316° |
| 2026-05-06 05:28 | 13.98991 | 100.33007 | 11100 ft | 345 kts | 338° |
| 2026-05-06 05:28 | 14.01339 | 100.32442 | 11729 ft | 350 kts | 352° |
| 2026-05-06 05:28 | 14.03766 | 100.32123 | 12400 ft | 354 kts | 354° |
| 2026-05-06 05:28 | 14.06233 | 100.31873 | 13080 ft | 357 kts | 355° |
| 2026-05-06 05:29 | 14.08719 | 100.31628 | 13743 ft | 361 kts | 354° |
| 2026-05-06 05:29 | 14.11230 | 100.31353 | 14409 ft | 364 kts | 353° |
| 2026-05-06 05:29 | 14.13764 | 100.31048 | 15061 ft | 368 kts | 353° |
| 2026-05-06 05:29 | 14.16317 | 100.30735 | 15694 ft | 372 kts | 353° |
| 2026-05-06 05:30 | 14.18901 | 100.30425 | 16297 ft | 375 kts | 354° |
| 2026-05-06 05:30 | 14.21472 | 100.30127 | 16895 ft | 379 kts | 354° |
| 2026-05-06 05:30 | 14.24104 | 100.29825 | 17476 ft | 382 kts | 354° |
| 2026-05-06 05:30 | 14.26755 | 100.29519 | 18040 ft | 385 kts | 354° |
| 2026-05-06 05:31 | 14.29433 | 100.29206 | 18590 ft | 389 kts | 354° |
| 2026-05-06 05:31 | 14.32130 | 100.28889 | 19133 ft | 392 kts | 353° |
| 2026-05-06 05:31 | 14.34850 | 100.28569 | 19654 ft | 394 kts | 354° |
| 2026-05-06 05:31 | 14.37583 | 100.28250 | 20163 ft | 397 kts | 353° |
| 2026-05-06 05:32 | 14.40337 | 100.27928 | 20634 ft | 400 kts | 353° |
| 2026-05-06 05:32 | 14.43113 | 100.27604 | 21118 ft | 403 kts | 353° |
| 2026-05-06 05:32 | 14.45908 | 100.27274 | 21593 ft | 405 kts | 352° |
| 2026-05-06 05:32 | 14.48660 | 100.26624 | 22051 ft | 407 kts | 343° |
| 2026-05-06 05:33 | 14.51385 | 100.25777 | 22466 ft | 410 kts | 343° |
| 2026-05-06 05:33 | 14.54117 | 100.24898 | 22893 ft | 412 kts | 342° |
| 2026-05-06 05:33 | 14.56861 | 100.23998 | 23292 ft | 415 kts | 342° |
| 2026-05-06 05:33 | 14.59626 | 100.23094 | 23669 ft | 417 kts | 342° |
| 2026-05-06 05:34 | 14.62406 | 100.22195 | 24046 ft | 420 kts | 342° |
| 2026-05-06 05:34 | 14.65205 | 100.21297 | 24408 ft | 422 kts | 342° |
| 2026-05-06 05:34 | 14.68013 | 100.20390 | 24761 ft | 424 kts | 342° |
| 2026-05-06 05:34 | 14.70797 | 100.19467 | 25129 ft | 426 kts | 342° |
| 2026-05-06 05:35 | 14.73618 | 100.18516 | 25465 ft | 428 kts | 342° |
| 2026-05-06 05:35 | 14.76458 | 100.17559 | 25783 ft | 430 kts | 342° |
| 2026-05-06 05:35 | 14.79310 | 100.16609 | 26118 ft | 432 kts | 342° |
| 2026-05-06 05:35 | 14.82177 | 100.15659 | 26428 ft | 434 kts | 342° |
| 2026-05-06 05:36 | 14.85062 | 100.14704 | 26703 ft | 436 kts | 342° |
| 2026-05-06 05:36 | 14.87958 | 100.13741 | 26997 ft | 438 kts | 342° |
| 2026-05-06 05:36 | 14.90871 | 100.12770 | 27285 ft | 440 kts | 342° |
| 2026-05-06 05:36 | 14.93793 | 100.11794 | 27565 ft | 442 kts | 342° |
| 2026-05-06 05:37 | 14.96731 | 100.10815 | 27839 ft | 444 kts | 342° |
| 2026-05-06 05:37 | 14.99688 | 100.09829 | 27901 ft | 448 kts | 342° |
| 2026-05-06 05:37 | 15.02663 | 100.08838 | 27913 ft | 450 kts | 342° |
| 2026-05-06 05:37 | 15.05636 | 100.07848 | 27903 ft | 447 kts | 342° |
| 2026-05-06 05:38 | 15.08589 | 100.06865 | 27911 ft | 445 kts | 342° |
| 2026-05-06 05:38 | 15.11537 | 100.05882 | 27903 ft | 444 kts | 342° |
| 2026-05-06 05:38 | 15.14438 | 100.04915 | 27926 ft | 444 kts | 342° |
| 2026-05-06 05:38 | 15.17378 | 100.03935 | 27913 ft | 444 kts | 342° |
| 2026-05-06 05:39 | 15.20318 | 100.02954 | 27916 ft | 443 kts | 342° |
| 2026-05-06 05:39 | 15.23255 | 100.01973 | 27919 ft | 443 kts | 342° |
| 2026-05-06 05:39 | 15.26190 | 100.00994 | 27911 ft | 443 kts | 341° |
| 2026-05-06 05:39 | 15.29127 | 100.00014 | 27917 ft | 443 kts | 341° |
| 2026-05-06 05:40 | 15.32064 | 99.99033 | 27922 ft | 443 kts | 341° |
| 2026-05-06 05:40 | 15.34991 | 99.98055 | 27913 ft | 442 kts | 341° |
| 2026-05-06 05:40 | 15.37921 | 99.97076 | 27911 ft | 442 kts | 341° |
| 2026-05-06 05:40 | 15.40850 | 99.96097 | 27911 ft | 443 kts | 341° |
| 2026-05-06 05:41 | 15.43782 | 99.95117 | 27920 ft | 442 kts | 341° |
| 2026-05-06 05:41 | 15.46711 | 99.94137 | 27920 ft | 443 kts | 341° |
| 2026-05-06 05:41 | 15.49647 | 99.93155 | 27913 ft | 443 kts | 341° |
| 2026-05-06 05:41 | 15.52579 | 99.92174 | 27911 ft | 442 kts | 341° |
| 2026-05-06 05:42 | 15.55506 | 99.91194 | 27914 ft | 443 kts | 341° |
| 2026-05-06 05:42 | 15.58438 | 99.90212 | 27918 ft | 443 kts | 341° |
| 2026-05-06 05:42 | 15.61367 | 99.89231 | 27909 ft | 442 kts | 341° |
| 2026-05-06 05:42 | 15.64301 | 99.88248 | 27907 ft | 442 kts | 341° |
| 2026-05-06 05:43 | 15.67191 | 99.87279 | 27920 ft | 442 kts | 341° |
| 2026-05-06 05:43 | 15.70116 | 99.86299 | 27915 ft | 441 kts | 341° |
| 2026-05-06 05:43 | 15.73038 | 99.85318 | 27911 ft | 442 kts | 341° |
| 2026-05-06 05:43 | 15.75966 | 99.84336 | 27922 ft | 442 kts | 341° |
| 2026-05-06 05:44 | 15.78893 | 99.83354 | 27921 ft | 442 kts | 341° |
| 2026-05-06 05:44 | 15.81818 | 99.82372 | 27920 ft | 442 kts | 341° |
| 2026-05-06 05:44 | 15.84744 | 99.81390 | 27907 ft | 442 kts | 341° |
| 2026-05-06 05:44 | 15.87667 | 99.80408 | 27915 ft | 442 kts | 341° |
| 2026-05-06 05:45 | 15.90590 | 99.79426 | 27910 ft | 442 kts | 341° |
| 2026-05-06 05:45 | 15.93515 | 99.78443 | 27910 ft | 442 kts | 341° |
| 2026-05-06 05:45 | 15.96437 | 99.77460 | 27912 ft | 442 kts | 341° |
| 2026-05-06 05:45 | 15.99366 | 99.76475 | 27908 ft | 442 kts | 341° |
| 2026-05-06 05:46 | 16.02287 | 99.75493 | 27909 ft | 442 kts | 341° |
| 2026-05-06 05:46 | 16.05215 | 99.74508 | 27908 ft | 442 kts | 341° |
| 2026-05-06 05:46 | 16.08137 | 99.73524 | 27923 ft | 442 kts | 341° |
| 2026-05-06 05:46 | 16.11026 | 99.72551 | 27921 ft | 442 kts | 341° |
| 2026-05-06 05:47 | 16.13951 | 99.71566 | 27910 ft | 442 kts | 341° |
| 2026-05-06 05:47 | 16.16876 | 99.70581 | 27920 ft | 442 kts | 341° |
| 2026-05-06 05:47 | 16.19802 | 99.69594 | 27909 ft | 442 kts | 341° |
| 2026-05-06 05:47 | 16.22729 | 99.68608 | 27915 ft | 442 kts | 341° |
| 2026-05-06 05:48 | 16.25656 | 99.67621 | 27901 ft | 442 kts | 341° |
| 2026-05-06 05:48 | 16.28579 | 99.66635 | 27892 ft | 442 kts | 341° |
| 2026-05-06 05:48 | 16.31517 | 99.65643 | 27245 ft | 444 kts | 341° |
| 2026-05-06 05:48 | 16.34449 | 99.64653 | 26614 ft | 440 kts | 341° |
| 2026-05-06 05:49 | 16.37335 | 99.63679 | 26011 ft | 432 kts | 341° |
| 2026-05-06 05:49 | 16.40174 | 99.62722 | 25409 ft | 426 kts | 341° |
| 2026-05-06 05:49 | 16.42974 | 99.61778 | 24810 ft | 420 kts | 341° |
| 2026-05-06 05:49 | 16.45734 | 99.60846 | 24213 ft | 414 kts | 341° |
| 2026-05-06 05:50 | 16.48455 | 99.59927 | 23617 ft | 409 kts | 341° |
| 2026-05-06 05:50 | 16.51147 | 99.59017 | 23031 ft | 404 kts | 341° |
| 2026-05-06 05:50 | 16.53803 | 99.58120 | 22432 ft | 399 kts | 341° |
| 2026-05-06 05:50 | 16.56429 | 99.57232 | 21847 ft | 395 kts | 341° |
| 2026-05-06 05:51 | 16.59027 | 99.56354 | 21268 ft | 390 kts | 341° |
| 2026-05-06 05:51 | 16.61565 | 99.55495 | 20677 ft | 387 kts | 341° |
| 2026-05-06 05:51 | 16.64108 | 99.54635 | 20087 ft | 382 kts | 341° |
| 2026-05-06 05:51 | 16.66501 | 99.53495 | 19531 ft | 376 kts | 325° |
| 2026-05-06 05:52 | 16.68374 | 99.51641 | 18958 ft | 370 kts | 304° |
| 2026-05-06 05:52 | 16.69455 | 99.49244 | 18384 ft | 365 kts | 283° |
| 2026-05-06 05:52 | 16.69706 | 99.46634 | 17813 ft | 361 kts | 272° |
| 2026-05-06 05:52 | 16.69733 | 99.44030 | 17228 ft | 357 kts | 269° |
| 2026-05-06 05:53 | 16.69691 | 99.41455 | 16659 ft | 353 kts | 269° |
| 2026-05-06 05:53 | 16.69656 | 99.38907 | 16104 ft | 349 kts | 270° |
| 2026-05-06 05:53 | 16.69656 | 99.36391 | 15535 ft | 344 kts | 270° |
| 2026-05-06 05:53 | 16.69680 | 99.33917 | 14992 ft | 339 kts | 270° |
| 2026-05-06 05:54 | 16.69704 | 99.31468 | 14434 ft | 335 kts | 270° |
| 2026-05-06 05:54 | 16.69719 | 99.29054 | 13886 ft | 331 kts | 270° |
| 2026-05-06 05:54 | 16.69726 | 99.26666 | 13338 ft | 327 kts | 270° |
| 2026-05-06 05:54 | 16.69731 | 99.24311 | 12791 ft | 323 kts | 270° |
| 2026-05-06 05:55 | 16.69737 | 99.21983 | 12292 ft | 317 kts | 270° |
| 2026-05-06 05:55 | 16.69746 | 99.19727 | 11793 ft | 313 kts | 270° |
| 2026-05-06 05:55 | 16.69754 | 99.17473 | 11273 ft | 309 kts | 270° |
| 2026-05-06 05:55 | 16.69762 | 99.15250 | 10751 ft | 305 kts | 270° |
| 2026-05-06 05:56 | 16.69769 | 99.13046 | 10264 ft | 301 kts | 270° |
| 2026-05-06 05:56 | 16.69776 | 99.10918 | 10190 ft | 289 kts | 270° |
| 2026-05-06 05:56 | 16.69782 | 99.08836 | 10086 ft | 286 kts | 270° |
| 2026-05-06 05:56 | 16.69788 | 99.06765 | 9920 ft | 285 kts | 270° |
| 2026-05-06 05:57 | 16.69794 | 99.04679 | 9560 ft | 288 kts | 270° |
| 2026-05-06 05:57 | 16.69799 | 99.02602 | 9214 ft | 285 kts | 270° |
| 2026-05-06 05:57 | 16.69805 | 99.00540 | 8873 ft | 283 kts | 270° |
| 2026-05-06 05:57 | 16.69810 | 98.98499 | 8545 ft | 280 kts | 270° |
| 2026-05-06 05:58 | 16.69815 | 98.96475 | 8207 ft | 277 kts | 270° |
| 2026-05-06 05:58 | 16.69819 | 98.94485 | 7897 ft | 272 kts | 270° |
| 2026-05-06 05:58 | 16.69823 | 98.92534 | 7589 ft | 267 kts | 270° |
| 2026-05-06 05:58 | 16.69828 | 98.90615 | 7278 ft | 262 kts | 270° |
| 2026-05-06 05:59 | 16.69836 | 98.88753 | 6968 ft | 258 kts | 271° |
| 2026-05-06 05:59 | 16.69938 | 98.86886 | 6581 ft | 257 kts | 274° |
| 2026-05-06 05:59 | 16.70118 | 98.85035 | 6203 ft | 256 kts | 275° |
| 2026-05-06 05:59 | 16.70307 | 98.83196 | 5853 ft | 253 kts | 275° |
| 2026-05-06 06:00 | 16.70396 | 98.81404 | 5537 ft | 241 kts | 270° |
| 2026-05-06 06:00 | 16.70384 | 98.79698 | 5232 ft | 230 kts | 268° |
| 2026-05-06 06:00 | 16.70337 | 98.78072 | 4947 ft | 220 kts | 267° |
| 2026-05-06 06:00 | 16.70296 | 98.76515 | 4688 ft | 210 kts | 268° |
| 2026-05-06 06:01 | 16.70269 | 98.75026 | 4427 ft | 202 kts | 268° |
| 2026-05-06 06:01 | 16.70249 | 98.73610 | 4204 ft | 189 kts | 268° |
| 2026-05-06 06:01 | 16.70238 | 98.72712 | 4067 ft | 186 kts | 268° |
| 2026-05-06 06:01 | 16.70216 | 98.70912 | 3779 ft | 185 kts | 268° |
| 2026-05-06 06:02 | 16.70204 | 98.70029 | 3633 ft | 184 kts | 268° |
| 2026-05-06 06:02 | 16.70185 | 98.68694 | 3363 ft | 184 kts | 269° |
| 2026-05-06 06:02 | 16.70167 | 98.67383 | 3089 ft | 176 kts | 268° |
| 2026-05-06 06:02 | 16.70150 | 98.66171 | 2839 ft | 160 kts | 269° |
| 2026-05-06 06:03 | 16.70133 | 98.65021 | 2641 ft | 157 kts | 271° |
| 2026-05-06 06:03 | 16.70117 | 98.63895 | 2408 ft | 154 kts | 271° |
| 2026-05-06 06:03 | 16.70100 | 98.62788 | 2206 ft | 152 kts | 271° |
| 2026-05-06 06:03 | 16.70083 | 98.61694 | 1996 ft | 149 kts | 271° |
| 2026-05-06 06:04 | 16.69994 | 98.60657 | 1815 ft | 143 kts | 263° |
| 2026-05-06 06:04 | 16.69995 | 98.59619 | 1535 ft | 142 kts | 275° |
| 2026-05-06 06:04 | 16.70050 | 98.58588 | 1263 ft | 144 kts | 277° |
| 2026-05-06 06:04 | 16.70047 | 98.57539 | 1056 ft | 143 kts | 266° |
| 2026-05-06 06:05 | 16.70008 | 98.56533 | 830 ft | 137 kts | 273° |
| 2026-05-06 06:05 | 16.70000 | 98.55611 | 690 ft | 97 kts | 268° |
| 2026-05-06 06:05 | 16.69996 | 98.55239 | 683 ft | 21 kts | 270° |
| 2026-05-06 06:05 | 16.69993 | 98.55085 | 684 ft | 21 kts | 265° |
| 2026-05-06 06:06 | 16.69989 | 98.54934 | 685 ft | 20 kts | 270° |
| 2026-05-06 06:06 | 16.69987 | 98.54789 | 690 ft | 20 kts | 269° |
| 2026-05-06 06:06 | 16.69985 | 98.54648 | 684 ft | 19 kts | 269° |
| 2026-05-06 06:06 | 16.69995 | 98.54518 | 689 ft | 17 kts | 300° |
| 2026-05-06 06:07 | 16.70092 | 98.54482 | 690 ft | 7 kts | 356° |
| 2026-05-06 06:07 | 16.70138 | 98.54495 | 692 ft | 8 kts | 47° |
| 2026-05-06 06:07 | 16.70146 | 98.54514 | 686 ft | 5 kts | 72° |
| 2026-05-06 06:07 | 16.70170 | 98.54538 | 692 ft | 5 kts | 13° |
| 2026-05-06 06:08 | 16.70188 | 98.54540 | 686 ft | 0 kts | 6° |
| 2026-05-06 06:08 | 16.70191 | 98.54540 | 692 ft | 1 kts | 4° |
| 2026-05-06 06:08 | 16.70197 | 98.54540 | 686 ft | 1 kts | 2° |